sensor_id;sensor_type;location;lat;lon;timestamp;temperature;humidity
2571;DHT22;1295;51.130;6.732;2022-08-21T00:01:25;23.00;99.90
2571;DHT22;1295;51.130;6.732;2022-08-21T00:03:50;23.00;99.90
2571;DHT22;1295;51.130;6.732;2022-08-21T00:06:16;22.90;99.90
2571;DHT22;1295;51.130;6.732;2022-08-21T00:08:42;22.90;99.90
2571;DHT22;1295;51.130;6.732;2022-08-21T00:11:08;22.90;99.90
2571;DHT22;1295;51.130;6.732;2022-08-21T00:13:33;22.90;99.90
2571;DHT22;1295;51.130;6.732;2022-08-21T00:15:59;22.90;99.90
2571;DHT22;1295;51.130;6.732;2022-08-21T00:18:25;22.90;99.90
2571;DHT22;1295;51.130;6.732;2022-08-21T00:20:51;22.90;99.90
2571;DHT22;1295;51.130;6.732;2022-08-21T00:23:17;22.90;99.90
2571;DHT22;1295;51.130;6.732;2022-08-21T00:25:43;22.90;99.90
2571;DHT22;1295;51.130;6.732;2022-08-21T00:28:08;22.90;99.90
2571;DHT22;1295;51.130;6.732;2022-08-21T00:30:34;22.80;99.90
2571;DHT22;1295;51.130;6.732;2022-08-21T00:32:59;22.90;99.90
2571;DHT22;1295;51.130;6.732;2022-08-21T00:35:28;22.80;99.90
2571;DHT22;1295;51.130;6.732;2022-08-21T00:37:57;22.80;99.90
2571;DHT22;1295;51.130;6.732;2022-08-21T00:40:29;22.80;99.90
2571;DHT22;1295;51.130;6.732;2022-08-21T00:42:53;22.80;99.90
2571;DHT22;1295;51.130;6.732;2022-08-21T00:45:18;22.80;99.90
2571;DHT22;1295;51.130;6.732;2022-08-21T00:47:44;22.80;99.90
2571;DHT22;1295;51.130;6.732;2022-08-21T00:50:10;22.80;99.90
2571;DHT22;1295;51.130;6.732;2022-08-21T00:52:36;22.70;99.90
2571;DHT22;1295;51.130;6.732;2022-08-21T00:55:01;22.70;99.90
2571;DHT22;1295;51.130;6.732;2022-08-21T00:57:30;22.70;99.90
2571;DHT22;1295;51.130;6.732;2022-08-21T00:59:55;22.70;99.90
2571;DHT22;1295;51.130;6.732;2022-08-21T01:02:20;22.70;99.90
2571;DHT22;1295;51.130;6.732;2022-08-21T01:04:46;22.70;99.90
2571;DHT22;1295;51.130;6.732;2022-08-21T01:07:12;22.70;99.90
2571;DHT22;1295;51.130;6.732;2022-08-21T01:09:38;22.60;99.90
2571;DHT22;1295;51.130;6.732;2022-08-21T01:12:04;22.60;99.90
2571;DHT22;1295;51.130;6.732;2022-08-21T01:14:30;22.60;99.90
2571;DHT22;1295;51.130;6.732;2022-08-21T01:16:55;22.60;99.90
2571;DHT22;1295;51.130;6.732;2022-08-21T01:19:21;22.60;99.90
2571;DHT22;1295;51.130;6.732;2022-08-21T01:21:47;22.60;99.90
2571;DHT22;1295;51.130;6.732;2022-08-21T01:24:13;22.50;99.90
2571;DHT22;1295;51.130;6.732;2022-08-21T01:26:39;22.50;99.90
2571;DHT22;1295;51.130;6.732;2022-08-21T01:29:16;22.50;99.90
2571;DHT22;1295;51.130;6.732;2022-08-21T01:31:40;22.50;99.90
2571;DHT22;1295;51.130;6.732;2022-08-21T01:34:06;22.50;99.90
2571;DHT22;1295;51.130;6.732;2022-08-21T01:36:32;22.50;99.90
2571;DHT22;1295;51.130;6.732;2022-08-21T01:38:58;22.50;99.90
2571;DHT22;1295;51.130;6.732;2022-08-21T01:41:24;22.50;99.90
2571;DHT22;1295;51.130;6.732;2022-08-21T01:43:49;22.50;99.90
2571;DHT22;1295;51.130;6.732;2022-08-21T01:46:15;22.40;99.90
2571;DHT22;1295;51.130;6.732;2022-08-21T01:48:41;22.40;99.90
2571;DHT22;1295;51.130;6.732;2022-08-21T01:51:06;22.40;99.90
2571;DHT22;1295;51.130;6.732;2022-08-21T01:53:33;22.40;99.90
2571;DHT22;1295;51.130;6.732;2022-08-21T01:55:58;22.40;99.90
2571;DHT22;1295;51.130;6.732;2022-08-21T01:58:23;22.40;99.90
2571;DHT22;1295;51.130;6.732;2022-08-21T02:00:50;22.40;99.90
2571;DHT22;1295;51.130;6.732;2022-08-21T02:03:15;22.30;99.90
2571;DHT22;1295;51.130;6.732;2022-08-21T02:05:41;22.30;99.90
2571;DHT22;1295;51.130;6.732;2022-08-21T02:08:07;22.30;99.90
2571;DHT22;1295;51.130;6.732;2022-08-21T02:10:33;22.30;99.90
2571;DHT22;1295;51.130;6.732;2022-08-21T02:13:00;22.30;99.90
2571;DHT22;1295;51.130;6.732;2022-08-21T02:15:26;22.30;99.90
2571;DHT22;1295;51.130;6.732;2022-08-21T02:17:52;22.30;99.90
2571;DHT22;1295;51.130;6.732;2022-08-21T02:20:21;22.30;99.90
2571;DHT22;1295;51.130;6.732;2022-08-21T02:22:45;22.20;99.90
2571;DHT22;1295;51.130;6.732;2022-08-21T02:25:11;22.20;99.90
2571;DHT22;1295;51.130;6.732;2022-08-21T02:27:38;22.20;99.90
2571;DHT22;1295;51.130;6.732;2022-08-21T02:30:04;22.20;99.90
2571;DHT22;1295;51.130;6.732;2022-08-21T02:32:30;22.20;99.90
2571;DHT22;1295;51.130;6.732;2022-08-21T02:34:55;22.20;99.90
2571;DHT22;1295;51.130;6.732;2022-08-21T02:37:21;22.20;99.90
2571;DHT22;1295;51.130;6.732;2022-08-21T02:39:47;22.10;99.90
2571;DHT22;1295;51.130;6.732;2022-08-21T02:42:12;22.10;99.90
2571;DHT22;1295;51.130;6.732;2022-08-21T02:44:38;22.10;99.90
2571;DHT22;1295;51.130;6.732;2022-08-21T02:47:04;22.10;99.90
2571;DHT22;1295;51.130;6.732;2022-08-21T02:49:30;22.10;99.90
2571;DHT22;1295;51.130;6.732;2022-08-21T02:51:55;22.10;99.90
2571;DHT22;1295;51.130;6.732;2022-08-21T02:54:21;22.10;99.90
2571;DHT22;1295;51.130;6.732;2022-08-21T02:56:47;22.10;99.90
2571;DHT22;1295;51.130;6.732;2022-08-21T02:59:12;22.10;99.90
2571;DHT22;1295;51.130;6.732;2022-08-21T03:01:39;22.00;99.90
2571;DHT22;1295;51.130;6.732;2022-08-21T03:04:04;22.00;99.90
2571;DHT22;1295;51.130;6.732;2022-08-21T03:06:30;22.00;99.90
2571;DHT22;1295;51.130;6.732;2022-08-21T03:08:56;22.00;99.90
2571;DHT22;1295;51.130;6.732;2022-08-21T03:11:21;22.00;99.90
2571;DHT22;1295;51.130;6.732;2022-08-21T03:13:47;22.00;99.90
2571;DHT22;1295;51.130;6.732;2022-08-21T03:16:13;21.90;99.90
2571;DHT22;1295;51.130;6.732;2022-08-21T03:18:38;21.90;99.90
2571;DHT22;1295;51.130;6.732;2022-08-21T03:21:04;21.90;99.90
2571;DHT22;1295;51.130;6.732;2022-08-21T03:23:30;21.90;99.90
2571;DHT22;1295;51.130;6.732;2022-08-21T03:25:56;21.90;99.90
2571;DHT22;1295;51.130;6.732;2022-08-21T03:28:23;21.80;99.90
2571;DHT22;1295;51.130;6.732;2022-08-21T03:30:53;21.80;99.90
2571;DHT22;1295;51.130;6.732;2022-08-21T03:33:18;21.80;99.90
2571;DHT22;1295;51.130;6.732;2022-08-21T03:35:45;21.80;99.90
2571;DHT22;1295;51.130;6.732;2022-08-21T03:38:10;21.80;99.90
2571;DHT22;1295;51.130;6.732;2022-08-21T03:40:35;21.80;99.90
2571;DHT22;1295;51.130;6.732;2022-08-21T03:43:01;21.80;99.90
2571;DHT22;1295;51.130;6.732;2022-08-21T03:45:27;21.70;99.90
2571;DHT22;1295;51.130;6.732;2022-08-21T03:47:55;21.70;99.90
2571;DHT22;1295;51.130;6.732;2022-08-21T03:50:20;21.80;99.90
2571;DHT22;1295;51.130;6.732;2022-08-21T03:52:45;21.70;99.90
2571;DHT22;1295;51.130;6.732;2022-08-21T03:55:11;21.70;99.90
2571;DHT22;1295;51.130;6.732;2022-08-21T03:57:37;21.70;99.90
2571;DHT22;1295;51.130;6.732;2022-08-21T04:00:04;21.70;99.90
2571;DHT22;1295;51.130;6.732;2022-08-21T04:02:29;21.70;99.90
2571;DHT22;1295;51.130;6.732;2022-08-21T04:04:55;21.60;99.90
2571;DHT22;1295;51.130;6.732;2022-08-21T04:07:21;21.60;99.90
2571;DHT22;1295;51.130;6.732;2022-08-21T04:09:46;21.60;99.90
2571;DHT22;1295;51.130;6.732;2022-08-21T04:12:12;21.60;99.90
2571;DHT22;1295;51.130;6.732;2022-08-21T04:14:45;21.60;99.90
2571;DHT22;1295;51.130;6.732;2022-08-21T04:17:11;21.60;99.90
2571;DHT22;1295;51.130;6.732;2022-08-21T04:19:38;21.50;99.90
2571;DHT22;1295;51.130;6.732;2022-08-21T04:22:03;21.50;99.90
2571;DHT22;1295;51.130;6.732;2022-08-21T04:24:29;21.50;99.90
2571;DHT22;1295;51.130;6.732;2022-08-21T04:26:55;21.50;99.90
2571;DHT22;1295;51.130;6.732;2022-08-21T04:29:21;21.40;99.90
2571;DHT22;1295;51.130;6.732;2022-08-21T04:31:47;21.40;99.90
2571;DHT22;1295;51.130;6.732;2022-08-21T04:34:12;21.50;99.90
2571;DHT22;1295;51.130;6.732;2022-08-21T04:36:38;21.50;99.90
2571;DHT22;1295;51.130;6.732;2022-08-21T04:39:04;21.40;99.90
2571;DHT22;1295;51.130;6.732;2022-08-21T04:41:29;21.40;99.90
2571;DHT22;1295;51.130;6.732;2022-08-21T04:43:55;21.40;99.90
2571;DHT22;1295;51.130;6.732;2022-08-21T04:46:21;21.40;99.90
2571;DHT22;1295;51.130;6.732;2022-08-21T04:48:46;21.40;99.90
2571;DHT22;1295;51.130;6.732;2022-08-21T04:51:15;21.40;99.90
2571;DHT22;1295;51.130;6.732;2022-08-21T04:53:47;21.40;99.90
2571;DHT22;1295;51.130;6.732;2022-08-21T04:56:13;21.30;99.90
2571;DHT22;1295;51.130;6.732;2022-08-21T04:58:38;21.30;99.90
2571;DHT22;1295;51.130;6.732;2022-08-21T05:01:04;21.30;99.90
2571;DHT22;1295;51.130;6.732;2022-08-21T05:03:29;21.30;99.90
2571;DHT22;1295;51.130;6.732;2022-08-21T05:05:55;21.30;99.90
2571;DHT22;1295;51.130;6.732;2022-08-21T05:08:22;21.30;99.90
2571;DHT22;1295;51.130;6.732;2022-08-21T05:10:48;21.30;99.90
2571;DHT22;1295;51.130;6.732;2022-08-21T05:13:14;21.30;99.90
2571;DHT22;1295;51.130;6.732;2022-08-21T05:15:40;21.20;99.90
2571;DHT22;1295;51.130;6.732;2022-08-21T05:18:06;21.20;99.90
2571;DHT22;1295;51.130;6.732;2022-08-21T05:20:32;21.20;99.90
2571;DHT22;1295;51.130;6.732;2022-08-21T05:22:57;21.20;99.90
2571;DHT22;1295;51.130;6.732;2022-08-21T05:25:23;21.20;99.90
2571;DHT22;1295;51.130;6.732;2022-08-21T05:27:55;21.20;99.90
2571;DHT22;1295;51.130;6.732;2022-08-21T05:30:21;21.20;99.90
2571;DHT22;1295;51.130;6.732;2022-08-21T05:32:47;21.20;99.90
2571;DHT22;1295;51.130;6.732;2022-08-21T05:35:13;21.10;99.90
2571;DHT22;1295;51.130;6.732;2022-08-21T05:37:38;21.10;99.90
2571;DHT22;1295;51.130;6.732;2022-08-21T05:40:05;21.10;99.90
2571;DHT22;1295;51.130;6.732;2022-08-21T05:42:31;21.10;99.90
2571;DHT22;1295;51.130;6.732;2022-08-21T05:44:56;21.10;99.90
2571;DHT22;1295;51.130;6.732;2022-08-21T05:47:22;21.10;99.90
2571;DHT22;1295;51.130;6.732;2022-08-21T05:49:53;21.10;99.90
2571;DHT22;1295;51.130;6.732;2022-08-21T05:52:19;21.10;99.90
2571;DHT22;1295;51.130;6.732;2022-08-21T05:54:44;21.10;99.90
2571;DHT22;1295;51.130;6.732;2022-08-21T05:57:10;21.10;99.90
2571;DHT22;1295;51.130;6.732;2022-08-21T05:59:35;21.10;99.90
2571;DHT22;1295;51.130;6.732;2022-08-21T06:02:01;21.10;99.90
2571;DHT22;1295;51.130;6.732;2022-08-21T06:04:27;21.10;99.90
2571;DHT22;1295;51.130;6.732;2022-08-21T06:06:53;21.00;99.90
2571;DHT22;1295;51.130;6.732;2022-08-21T06:09:19;21.00;99.90
2571;DHT22;1295;51.130;6.732;2022-08-21T06:11:45;21.00;99.90
2571;DHT22;1295;51.130;6.732;2022-08-21T06:14:13;21.00;99.90
2571;DHT22;1295;51.130;6.732;2022-08-21T06:16:36;21.00;99.90
2571;DHT22;1295;51.130;6.732;2022-08-21T06:19:02;21.00;99.90
2571;DHT22;1295;51.130;6.732;2022-08-21T06:21:28;21.00;99.90
2571;DHT22;1295;51.130;6.732;2022-08-21T06:23:54;21.00;99.90
2571;DHT22;1295;51.130;6.732;2022-08-21T06:26:20;21.00;99.90
2571;DHT22;1295;51.130;6.732;2022-08-21T06:28:45;21.00;99.90
2571;DHT22;1295;51.130;6.732;2022-08-21T06:31:14;21.00;99.90
2571;DHT22;1295;51.130;6.732;2022-08-21T06:33:39;21.00;99.90
2571;DHT22;1295;51.130;6.732;2022-08-21T06:36:05;21.10;99.90
2571;DHT22;1295;51.130;6.732;2022-08-21T06:38:31;21.10;99.90
2571;DHT22;1295;51.130;6.732;2022-08-21T06:40:56;21.10;99.90
2571;DHT22;1295;51.130;6.732;2022-08-21T06:43:22;21.10;99.90
2571;DHT22;1295;51.130;6.732;2022-08-21T06:45:48;20.50;99.90
2571;DHT22;1295;51.130;6.732;2022-08-21T06:48:14;21.10;99.90
2571;DHT22;1295;51.130;6.732;2022-08-21T06:50:40;21.10;99.90
2571;DHT22;1295;51.130;6.732;2022-08-21T06:53:07;21.10;99.90
2571;DHT22;1295;51.130;6.732;2022-08-21T06:55:32;21.10;99.90
2571;DHT22;1295;51.130;6.732;2022-08-21T06:57:59;21.20;99.90
2571;DHT22;1295;51.130;6.732;2022-08-21T07:00:24;21.20;99.90
2571;DHT22;1295;51.130;6.732;2022-08-21T07:02:50;21.20;99.90
2571;DHT22;1295;51.130;6.732;2022-08-21T07:05:16;21.20;99.90
2571;DHT22;1295;51.130;6.732;2022-08-21T07:07:42;21.30;99.90
2571;DHT22;1295;51.130;6.732;2022-08-21T07:10:08;21.40;99.90
2571;DHT22;1295;51.130;6.732;2022-08-21T07:12:34;21.40;99.90
2571;DHT22;1295;51.130;6.732;2022-08-21T07:15:00;21.50;99.90
2571;DHT22;1295;51.130;6.732;2022-08-21T07:17:25;21.60;99.90
2571;DHT22;1295;51.130;6.732;2022-08-21T07:19:51;21.60;99.90
2571;DHT22;1295;51.130;6.732;2022-08-21T07:22:18;21.70;99.90
2571;DHT22;1295;51.130;6.732;2022-08-21T07:24:43;21.70;99.90
2571;DHT22;1295;51.130;6.732;2022-08-21T07:27:09;21.70;99.90
2571;DHT22;1295;51.130;6.732;2022-08-21T07:29:34;21.50;99.90
2571;DHT22;1295;51.130;6.732;2022-08-21T07:32:00;21.30;99.90
2571;DHT22;1295;51.130;6.732;2022-08-21T07:34:26;21.60;99.90
2571;DHT22;1295;51.130;6.732;2022-08-21T07:36:52;21.80;99.90
2571;DHT22;1295;51.130;6.732;2022-08-21T07:39:18;21.80;99.90
2571;DHT22;1295;51.130;6.732;2022-08-21T07:41:43;21.80;99.90
2571;DHT22;1295;51.130;6.732;2022-08-21T07:44:10;21.80;99.90
2571;DHT22;1295;51.130;6.732;2022-08-21T07:46:35;21.80;99.90
2571;DHT22;1295;51.130;6.732;2022-08-21T07:49:01;22.00;99.90
2571;DHT22;1295;51.130;6.732;2022-08-21T07:51:34;22.00;99.90
2571;DHT22;1295;51.130;6.732;2022-08-21T07:54:00;22.00;99.90
2571;DHT22;1295;51.130;6.732;2022-08-21T07:56:26;21.90;99.90
2571;DHT22;1295;51.130;6.732;2022-08-21T07:58:51;22.10;99.90
2571;DHT22;1295;51.130;6.732;2022-08-21T08:01:17;22.10;99.90
2571;DHT22;1295;51.130;6.732;2022-08-21T08:03:43;22.10;99.90
2571;DHT22;1295;51.130;6.732;2022-08-21T08:06:08;22.20;99.90
2571;DHT22;1295;51.130;6.732;2022-08-21T08:08:34;22.40;99.90
2571;DHT22;1295;51.130;6.732;2022-08-21T08:11:00;22.50;99.90
2571;DHT22;1295;51.130;6.732;2022-08-21T08:13:26;22.60;98.90
2571;DHT22;1295;51.130;6.732;2022-08-21T08:15:52;22.90;99.00
2571;DHT22;1295;51.130;6.732;2022-08-21T08:18:18;22.90;99.30
2571;DHT22;1295;51.130;6.732;2022-08-21T08:20:43;22.90;99.60
2571;DHT22;1295;51.130;6.732;2022-08-21T08:23:10;22.70;99.90
2571;DHT22;1295;51.130;6.732;2022-08-21T08:25:35;23.10;99.40
2571;DHT22;1295;51.130;6.732;2022-08-21T08:28:00;23.40;98.90
2571;DHT22;1295;51.130;6.732;2022-08-21T08:30:27;23.30;98.90
2571;DHT22;1295;51.130;6.732;2022-08-21T08:32:57;23.30;98.90
2571;DHT22;1295;51.130;6.732;2022-08-21T08:35:34;22.70;99.50
2571;DHT22;1295;51.130;6.732;2022-08-21T08:38:00;23.50;99.30
2571;DHT22;1295;51.130;6.732;2022-08-21T08:40:33;23.50;99.10
2571;DHT22;1295;51.130;6.732;2022-08-21T08:42:56;23.90;97.70
2571;DHT22;1295;51.130;6.732;2022-08-21T08:45:23;23.80;98.10
2571;DHT22;1295;51.130;6.732;2022-08-21T08:48:00;23.80;98.10
2571;DHT22;1295;51.130;6.732;2022-08-21T08:50:38;23.80;98.70
2571;DHT22;1295;51.130;6.732;2022-08-21T08:52:58;23.70;98.70
2571;DHT22;1295;51.130;6.732;2022-08-21T08:55:23;23.70;98.60
2571;DHT22;1295;51.130;6.732;2022-08-21T08:57:48;23.80;98.40
2571;DHT22;1295;51.130;6.732;2022-08-21T09:00:15;23.70;98.30
2571;DHT22;1295;51.130;6.732;2022-08-21T09:02:41;23.30;98.60
2571;DHT22;1295;51.130;6.732;2022-08-21T09:05:06;23.60;98.30
2571;DHT22;1295;51.130;6.732;2022-08-21T09:07:47;23.50;98.40
2571;DHT22;1295;51.130;6.732;2022-08-21T09:10:19;23.50;98.50
2571;DHT22;1295;51.130;6.732;2022-08-21T09:12:50;23.50;98.70
2571;DHT22;1295;51.130;6.732;2022-08-21T09:23:40;23.40;98.70
2571;DHT22;1295;51.130;6.732;2022-08-21T09:26:06;24.10;99.10
2571;DHT22;1295;51.130;6.732;2022-08-21T09:28:32;24.70;97.90
2571;DHT22;1295;51.130;6.732;2022-08-21T09:30:56;24.60;97.80
2571;DHT22;1295;51.130;6.732;2022-08-21T09:33:22;24.20;98.30
2571;DHT22;1295;51.130;6.732;2022-08-21T09:35:52;24.10;98.20
2571;DHT22;1295;51.130;6.732;2022-08-21T09:38:37;24.00;98.10
2571;DHT22;1295;51.130;6.732;2022-08-21T09:41:05;24.00;98.10
2571;DHT22;1295;51.130;6.732;2022-08-21T09:43:30;24.00;98.50
2571;DHT22;1295;51.130;6.732;2022-08-21T09:46:04;24.40;98.10
2571;DHT22;1295;51.130;6.732;2022-08-21T09:48:28;24.40;98.10
2571;DHT22;1295;51.130;6.732;2022-08-21T09:50:53;24.80;97.00
2571;DHT22;1295;51.130;6.732;2022-08-21T09:53:23;24.50;97.60
2571;DHT22;1295;51.130;6.732;2022-08-21T09:55:54;24.20;98.50
2571;DHT22;1295;51.130;6.732;2022-08-21T09:58:30;24.20;98.40
2571;DHT22;1295;51.130;6.732;2022-08-21T10:00:57;24.80;96.50
2571;DHT22;1295;51.130;6.732;2022-08-21T10:03:21;25.30;97.00
2571;DHT22;1295;51.130;6.732;2022-08-21T10:06:01;25.10;96.40
2571;DHT22;1295;51.130;6.732;2022-08-21T10:08:28;25.10;96.40
2571;DHT22;1295;51.130;6.732;2022-08-21T10:10:55;24.80;96.90
2571;DHT22;1295;51.130;6.732;2022-08-21T10:13:54;25.30;97.20
2571;DHT22;1295;51.130;6.732;2022-08-21T10:19:15;25.00;97.20
2571;DHT22;1295;51.130;6.732;2022-08-21T10:21:48;24.90;97.10
2571;DHT22;1295;51.130;6.732;2022-08-21T10:24:14;25.50;96.90
2571;DHT22;1295;51.130;6.732;2022-08-21T10:29:37;24.70;97.70
2571;DHT22;1295;51.130;6.732;2022-08-21T10:32:04;25.10;97.20
2571;DHT22;1295;51.130;6.732;2022-08-21T10:34:34;25.40;96.30
2571;DHT22;1295;51.130;6.732;2022-08-21T10:37:07;25.10;96.80
2571;DHT22;1295;51.130;6.732;2022-08-21T10:39:35;24.90;97.10
2571;DHT22;1295;51.130;6.732;2022-08-21T10:42:27;25.10;96.70
2571;DHT22;1295;51.130;6.732;2022-08-21T10:45:25;25.40;96.50
2571;DHT22;1295;51.130;6.732;2022-08-21T10:47:48;25.10;96.90
2571;DHT22;1295;51.130;6.732;2022-08-21T10:50:21;24.70;97.40
2571;DHT22;1295;51.130;6.732;2022-08-21T10:55:35;24.70;96.90
2571;DHT22;1295;51.130;6.732;2022-08-21T10:58:02;25.00;96.80
2571;DHT22;1295;51.130;6.732;2022-08-21T11:00:30;25.40;96.70
2571;DHT22;1295;51.130;6.732;2022-08-21T11:02:57;25.30;96.60
2571;DHT22;1295;51.130;6.732;2022-08-21T11:05:25;25.20;96.50
2571;DHT22;1295;51.130;6.732;2022-08-21T11:07:54;25.20;96.30
2571;DHT22;1295;51.130;6.732;2022-08-21T11:10:24;25.50;95.90
2571;DHT22;1295;51.130;6.732;2022-08-21T11:12:55;25.20;96.90
2571;DHT22;1295;51.130;6.732;2022-08-21T11:15:40;25.40;96.50
2571;DHT22;1295;51.130;6.732;2022-08-21T11:20:43;25.80;97.60
2571;DHT22;1295;51.130;6.732;2022-08-21T11:23:11;25.80;97.50
2571;DHT22;1295;51.130;6.732;2022-08-21T11:25:36;25.50;96.50
2571;DHT22;1295;51.130;6.732;2022-08-21T11:28:02;25.20;97.00
2571;DHT22;1295;51.130;6.732;2022-08-21T11:30:29;25.40;96.20
2571;DHT22;1295;51.130;6.732;2022-08-21T11:33:22;24.70;97.30
2571;DHT22;1295;51.130;6.732;2022-08-21T11:35:51;25.30;96.80
2571;DHT22;1295;51.130;6.732;2022-08-21T11:43:41;25.20;96.80
2571;DHT22;1295;51.130;6.732;2022-08-21T11:46:22;25.00;97.10
2571;DHT22;1295;51.130;6.732;2022-08-21T11:51:35;25.30;96.40
2571;DHT22;1295;51.130;6.732;2022-08-21T11:54:05;25.30;96.40
2571;DHT22;1295;51.130;6.732;2022-08-21T11:56:32;24.70;97.20
2571;DHT22;1295;51.130;6.732;2022-08-21T11:58:59;25.00;96.90
2571;DHT22;1295;51.130;6.732;2022-08-21T12:01:24;25.20;96.80
2571;DHT22;1295;51.130;6.732;2022-08-21T12:03:57;25.40;95.80
2571;DHT22;1295;51.130;6.732;2022-08-21T12:06:32;25.60;96.00
2571;DHT22;1295;51.130;6.732;2022-08-21T12:08:58;25.70;96.40
2571;DHT22;1295;51.130;6.732;2022-08-21T12:11:24;25.90;94.90
2571;DHT22;1295;51.130;6.732;2022-08-21T12:13:55;25.80;94.90
2571;DHT22;1295;51.130;6.732;2022-08-21T12:16:30;25.60;95.90
2571;DHT22;1295;51.130;6.732;2022-08-21T12:19:03;25.30;96.20
2571;DHT22;1295;51.130;6.732;2022-08-21T12:21:28;25.20;96.00
2571;DHT22;1295;51.130;6.732;2022-08-21T12:24:01;25.40;96.10
2571;DHT22;1295;51.130;6.732;2022-08-21T12:26:32;25.00;96.70
2571;DHT22;1295;51.130;6.732;2022-08-21T12:29:10;25.30;95.60
2571;DHT22;1295;51.130;6.732;2022-08-21T12:31:32;25.40;96.20
2571;DHT22;1295;51.130;6.732;2022-08-21T12:34:00;25.70;95.70
2571;DHT22;1295;51.130;6.732;2022-08-21T12:36:29;25.70;95.70
2571;DHT22;1295;51.130;6.732;2022-08-21T12:38:54;26.00;94.20
2571;DHT22;1295;51.130;6.732;2022-08-21T12:41:20;25.50;95.30
2571;DHT22;1295;51.130;6.732;2022-08-21T12:43:47;25.40;95.90
2571;DHT22;1295;51.130;6.732;2022-08-21T12:46:17;25.20;96.30
2571;DHT22;1295;51.130;6.732;2022-08-21T12:48:52;25.10;96.30
2571;DHT22;1295;51.130;6.732;2022-08-21T12:51:16;25.50;95.50
2571;DHT22;1295;51.130;6.732;2022-08-21T12:53:51;24.90;96.20
2571;DHT22;1295;51.130;6.732;2022-08-21T12:56:19;24.90;96.20
2571;DHT22;1295;51.130;6.732;2022-08-21T12:58:45;24.90;96.70
2571;DHT22;1295;51.130;6.732;2022-08-21T13:01:14;25.80;94.90
2571;DHT22;1295;51.130;6.732;2022-08-21T13:03:37;25.40;95.60
2571;DHT22;1295;51.130;6.732;2022-08-21T13:06:04;25.60;95.40
2571;DHT22;1295;51.130;6.732;2022-08-21T13:08:29;26.00;95.40
2571;DHT22;1295;51.130;6.732;2022-08-21T13:10:57;25.60;94.80
2571;DHT22;1295;51.130;6.732;2022-08-21T13:13:22;25.60;94.90
2571;DHT22;1295;51.130;6.732;2022-08-21T13:15:47;25.80;95.10
2571;DHT22;1295;51.130;6.732;2022-08-21T13:18:20;26.00;95.20
2571;DHT22;1295;51.130;6.732;2022-08-21T13:20:45;26.00;95.20
2571;DHT22;1295;51.130;6.732;2022-08-21T13:23:26;25.40;95.60
2571;DHT22;1295;51.130;6.732;2022-08-21T13:25:52;25.80;94.80
2571;DHT22;1295;51.130;6.732;2022-08-21T13:28:18;25.80;95.10
2571;DHT22;1295;51.130;6.732;2022-08-21T13:30:46;25.50;94.90
2571;DHT22;1295;51.130;6.732;2022-08-21T13:33:10;25.40;95.50
2571;DHT22;1295;51.130;6.732;2022-08-21T13:35:44;25.30;95.80
2571;DHT22;1295;51.130;6.732;2022-08-21T13:38:01;25.50;95.50
2571;DHT22;1295;51.130;6.732;2022-08-21T13:40:30;25.10;95.90
2571;DHT22;1295;51.130;6.732;2022-08-21T13:42:54;25.00;96.10
2571;DHT22;1295;51.130;6.732;2022-08-21T13:45:25;25.40;95.40
2571;DHT22;1295;51.130;6.732;2022-08-21T13:47:49;25.50;94.90
2571;DHT22;1295;51.130;6.732;2022-08-21T13:50:16;25.90;94.40
2571;DHT22;1295;51.130;6.732;2022-08-21T13:52:46;26.00;94.60
2571;DHT22;1295;51.130;6.732;2022-08-21T13:55:12;25.50;95.10
2571;DHT22;1295;51.130;6.732;2022-08-21T13:57:36;25.90;94.30
2571;DHT22;1295;51.130;6.732;2022-08-21T14:02:41;25.80;94.40
2571;DHT22;1295;51.130;6.732;2022-08-21T14:05:06;25.30;95.10
2571;DHT22;1295;51.130;6.732;2022-08-21T14:07:33;25.00;95.40
2571;DHT22;1295;51.130;6.732;2022-08-21T14:10:17;25.00;95.30
2571;DHT22;1295;51.130;6.732;2022-08-21T14:12:51;25.10;95.40
2571;DHT22;1295;51.130;6.732;2022-08-21T14:15:18;25.80;94.80
2571;DHT22;1295;51.130;6.732;2022-08-21T14:17:43;25.30;95.20
2571;DHT22;1295;51.130;6.732;2022-08-21T14:20:12;25.10;95.40
2571;DHT22;1295;51.130;6.732;2022-08-21T14:22:44;25.10;95.20
2571;DHT22;1295;51.130;6.732;2022-08-21T14:25:13;25.00;95.40
2571;DHT22;1295;51.130;6.732;2022-08-21T14:27:44;25.10;95.10
2571;DHT22;1295;51.130;6.732;2022-08-21T14:30:11;25.10;95.20
2571;DHT22;1295;51.130;6.732;2022-08-21T14:32:37;25.40;95.00
2571;DHT22;1295;51.130;6.732;2022-08-21T14:35:06;25.30;95.20
2571;DHT22;1295;51.130;6.732;2022-08-21T14:37:32;25.20;95.00
2571;DHT22;1295;51.130;6.732;2022-08-21T14:39:57;25.50;94.70
2571;DHT22;1295;51.130;6.732;2022-08-21T14:42:23;25.60;94.80
2571;DHT22;1295;51.130;6.732;2022-08-21T14:44:49;26.00;94.40
2571;DHT22;1295;51.130;6.732;2022-08-21T14:47:15;26.00;94.40
2571;DHT22;1295;51.130;6.732;2022-08-21T14:49:41;25.60;94.70
2571;DHT22;1295;51.130;6.732;2022-08-21T14:52:06;25.50;95.00
2571;DHT22;1295;51.130;6.732;2022-08-21T14:54:33;25.50;94.80
2571;DHT22;1295;51.130;6.732;2022-08-21T14:57:04;25.40;94.90
2571;DHT22;1295;51.130;6.732;2022-08-21T14:59:27;25.40;94.90
2571;DHT22;1295;51.130;6.732;2022-08-21T15:01:53;25.30;95.10
2571;DHT22;1295;51.130;6.732;2022-08-21T15:04:18;25.30;95.00
2571;DHT22;1295;51.130;6.732;2022-08-21T15:06:45;25.70;94.60
2571;DHT22;1295;51.130;6.732;2022-08-21T15:09:10;25.70;94.60
2571;DHT22;1295;51.130;6.732;2022-08-21T15:11:36;25.50;94.80
2571;DHT22;1295;51.130;6.732;2022-08-21T15:14:02;25.50;94.30
2571;DHT22;1295;51.130;6.732;2022-08-21T15:16:28;25.60;94.60
2571;DHT22;1295;51.130;6.732;2022-08-21T15:18:54;25.60;94.00
2571;DHT22;1295;51.130;6.732;2022-08-21T15:21:25;25.60;94.00
2571;DHT22;1295;51.130;6.732;2022-08-21T15:23:50;25.80;94.40
2571;DHT22;1295;51.130;6.732;2022-08-21T15:26:17;25.60;94.70
2571;DHT22;1295;51.130;6.732;2022-08-21T15:28:42;25.60;94.70
2571;DHT22;1295;51.130;6.732;2022-08-21T15:31:08;25.50;94.80
2571;DHT22;1295;51.130;6.732;2022-08-21T15:33:34;25.40;94.80
2571;DHT22;1295;51.130;6.732;2022-08-21T15:35:59;25.40;94.80
2571;DHT22;1295;51.130;6.732;2022-08-21T15:38:25;25.50;94.30
2571;DHT22;1295;51.130;6.732;2022-08-21T15:40:51;25.50;94.80
2571;DHT22;1295;51.130;6.732;2022-08-21T15:43:23;25.70;94.50
2571;DHT22;1295;51.130;6.732;2022-08-21T15:45:47;25.60;94.40
2571;DHT22;1295;51.130;6.732;2022-08-21T15:48:12;25.70;94.50
2571;DHT22;1295;51.130;6.732;2022-08-21T15:50:38;25.90;93.50
2571;DHT22;1295;51.130;6.732;2022-08-21T15:53:04;25.90;94.30
2571;DHT22;1295;51.130;6.732;2022-08-21T15:55:33;25.90;94.20
2571;DHT22;1295;51.130;6.732;2022-08-21T15:57:56;25.50;94.70
2571;DHT22;1295;51.130;6.732;2022-08-21T16:00:22;25.50;94.70
2571;DHT22;1295;51.130;6.732;2022-08-21T16:02:48;25.50;94.70
2571;DHT22;1295;51.130;6.732;2022-08-21T16:05:14;25.60;94.80
2571;DHT22;1295;51.130;6.732;2022-08-21T16:07:40;25.60;94.60
2571;DHT22;1295;51.130;6.732;2022-08-21T16:10:06;25.60;94.60
2571;DHT22;1295;51.130;6.732;2022-08-21T16:12:33;25.60;94.40
2571;DHT22;1295;51.130;6.732;2022-08-21T16:14:59;25.60;94.30
2571;DHT22;1295;51.130;6.732;2022-08-21T16:17:26;25.60;94.40
2571;DHT22;1295;51.130;6.732;2022-08-21T16:19:50;25.60;94.40
2571;DHT22;1295;51.130;6.732;2022-08-21T16:22:16;25.80;95.40
2571;DHT22;1295;51.130;6.732;2022-08-21T16:24:41;25.80;94.60
2571;DHT22;1295;51.130;6.732;2022-08-21T16:27:07;25.70;93.90
2571;DHT22;1295;51.130;6.732;2022-08-21T16:29:33;25.60;94.00
2571;DHT22;1295;51.130;6.732;2022-08-21T16:31:59;25.60;93.80